Crossnore, North Carolina
Current Conditions -  °F | °C
As of 7:55 PM on Monday 26 Jan 2015 (Local Time) from KTNB Reporting Station
Light Snow Light Snow  
Wind Chill: 13°   Ceiling: 800
Heat Index: 25°   Visibility: 3mi
Dew Point: 23°   Wind: 14mph
Humidity: 91%   Direction: 290°WNW
Pressure: 29.72"   Gusts: 28mph
Location:  36.02°N, 81.93°W
Report Text: KTNB 270055Z AUTO 29012G24KT 3SM -SN OVC008 M04/M05 A2972 RMK AO2 T10381050
Loading
Personal Weather Stations






























Interactive Weather Map New forecast layout! Learn more

10-Day Weather Forecast

Advertisements
Track Severe Weather on mobile